Аэропорт: Могилёв. Могилёв

ICAO: UMOO

METAR:
Информация по данной станции не доступна
METAR:
2020-08-13 08:01:00
TAF UMOO 130801Z 1309/1318 35005MPS 9999 BKN020 TEMPO 1309/1318 32004G09MPS -SHRA BKN015CB